sensor_id;sensor_type;location;lat;lon;timestamp;temperature;humidity
18974;DHT22;9621;48.690;9.466;2023-04-25T00:01:39;6.30;99.90
18974;DHT22;9621;48.690;9.466;2023-04-25T00:04:07;6.30;99.90
18974;DHT22;9621;48.690;9.466;2023-04-25T00:06:34;6.40;99.90
18974;DHT22;9621;48.690;9.466;2023-04-25T00:09:02;6.40;99.90
18974;DHT22;9621;48.690;9.466;2023-04-25T00:11:29;6.50;99.90
18974;DHT22;9621;48.690;9.466;2023-04-25T00:13:56;6.50;99.90
18974;DHT22;9621;48.690;9.466;2023-04-25T00:16:25;6.50;99.90
18974;DHT22;9621;48.690;9.466;2023-04-25T00:18:53;6.50;99.90
18974;DHT22;9621;48.690;9.466;2023-04-25T00:21:21;6.60;99.90
18974;DHT22;9621;48.690;9.466;2023-04-25T00:23:49;6.60;99.90
18974;DHT22;9621;48.690;9.466;2023-04-25T00:26:16;6.60;99.90
18974;DHT22;9621;48.690;9.466;2023-04-25T00:28:43;6.70;99.90
18974;DHT22;9621;48.690;9.466;2023-04-25T00:31:10;6.70;99.90
18974;DHT22;9621;48.690;9.466;2023-04-25T00:33:37;6.70;99.90
18974;DHT22;9621;48.690;9.466;2023-04-25T00:36:07;6.70;99.90
18974;DHT22;9621;48.690;9.466;2023-04-25T00:38:34;6.70;99.90
18974;DHT22;9621;48.690;9.466;2023-04-25T00:41:01;6.70;99.90
18974;DHT22;9621;48.690;9.466;2023-04-25T00:43:28;6.70;99.90
18974;DHT22;9621;48.690;9.466;2023-04-25T00:45:57;6.80;99.90
18974;DHT22;9621;48.690;9.466;2023-04-25T00:48:24;6.80;99.90
18974;DHT22;9621;48.690;9.466;2023-04-25T00:50:52;6.80;99.90
18974;DHT22;9621;48.690;9.466;2023-04-25T00:53:22;6.80;99.90
18974;DHT22;9621;48.690;9.466;2023-04-25T00:55:49;6.80;99.90
18974;DHT22;9621;48.690;9.466;2023-04-25T00:58:17;6.80;99.90
18974;DHT22;9621;48.690;9.466;2023-04-25T01:00:44;6.90;99.90
18974;DHT22;9621;48.690;9.466;2023-04-25T01:03:12;6.90;99.90
18974;DHT22;9621;48.690;9.466;2023-04-25T01:05:39;7.00;99.90
18974;DHT22;9621;48.690;9.466;2023-04-25T01:08:07;6.90;99.90
18974;DHT22;9621;48.690;9.466;2023-04-25T01:10:36;6.90;99.90
18974;DHT22;9621;48.690;9.466;2023-04-25T01:13:03;6.90;99.90
18974;DHT22;9621;48.690;9.466;2023-04-25T01:15:30;6.90;99.90
18974;DHT22;9621;48.690;9.466;2023-04-25T01:17:58;6.90;99.90
18974;DHT22;9621;48.690;9.466;2023-04-25T01:22:55;6.90;99.90
18974;DHT22;9621;48.690;9.466;2023-04-25T01:25:22;6.90;99.90
18974;DHT22;9621;48.690;9.466;2023-04-25T01:27:49;6.90;99.90
18974;DHT22;9621;48.690;9.466;2023-04-25T01:30:17;6.90;99.90
18974;DHT22;9621;48.690;9.466;2023-04-25T01:32:44;6.80;99.90
18974;DHT22;9621;48.690;9.466;2023-04-25T01:35:12;6.80;99.90
18974;DHT22;9621;48.690;9.466;2023-04-25T01:37:39;6.90;99.90
18974;DHT22;9621;48.690;9.466;2023-04-25T01:40:09;6.90;99.90
18974;DHT22;9621;48.690;9.466;2023-04-25T01:42:38;6.90;99.90
18974;DHT22;9621;48.690;9.466;2023-04-25T01:45:06;6.80;99.90
18974;DHT22;9621;48.690;9.466;2023-04-25T01:47:34;6.90;99.90
18974;DHT22;9621;48.690;9.466;2023-04-25T01:50:01;6.90;99.90
18974;DHT22;9621;48.690;9.466;2023-04-25T01:52:28;6.90;99.90
18974;DHT22;9621;48.690;9.466;2023-04-25T01:54:56;6.80;99.90
18974;DHT22;9621;48.690;9.466;2023-04-25T01:57:25;6.80;99.90
18974;DHT22;9621;48.690;9.466;2023-04-25T01:59:53;6.80;99.90
18974;DHT22;9621;48.690;9.466;2023-04-25T02:02:24;6.80;99.90
18974;DHT22;9621;48.690;9.466;2023-04-25T02:07:19;6.80;99.90
18974;DHT22;9621;48.690;9.466;2023-04-25T02:09:46;6.90;99.90
18974;DHT22;9621;48.690;9.466;2023-04-25T02:12:13;6.80;99.90
18974;DHT22;9621;48.690;9.466;2023-04-25T02:14:41;6.80;99.90
18974;DHT22;9621;48.690;9.466;2023-04-25T02:17:08;6.70;99.90
18974;DHT22;9621;48.690;9.466;2023-04-25T02:19:35;6.80;99.90
18974;DHT22;9621;48.690;9.466;2023-04-25T02:22:04;6.80;99.90
18974;DHT22;9621;48.690;9.466;2023-04-25T02:24:31;6.80;99.90
18974;DHT22;9621;48.690;9.466;2023-04-25T02:26:59;6.80;99.90
18974;DHT22;9621;48.690;9.466;2023-04-25T02:29:26;6.70;99.90
18974;DHT22;9621;48.690;9.466;2023-04-25T02:31:54;6.80;99.90
18974;DHT22;9621;48.690;9.466;2023-04-25T02:34:21;6.80;99.90
18974;DHT22;9621;48.690;9.466;2023-04-25T02:36:48;6.80;99.90
18974;DHT22;9621;48.690;9.466;2023-04-25T02:39:16;6.70;99.90
18974;DHT22;9621;48.690;9.466;2023-04-25T02:41:43;6.60;99.90
18974;DHT22;9621;48.690;9.466;2023-04-25T02:44:09;6.70;99.90
18974;DHT22;9621;48.690;9.466;2023-04-25T02:46:36;6.60;99.90
18974;DHT22;9621;48.690;9.466;2023-04-25T02:51:32;6.60;99.90
18974;DHT22;9621;48.690;9.466;2023-04-25T02:53:59;6.50;99.90
18974;DHT22;9621;48.690;9.466;2023-04-25T02:56:26;6.50;99.90
18974;DHT22;9621;48.690;9.466;2023-04-25T02:58:53;6.40;99.90
18974;DHT22;9621;48.690;9.466;2023-04-25T03:01:24;6.50;99.90
18974;DHT22;9621;48.690;9.466;2023-04-25T03:03:52;6.40;99.90
18974;DHT22;9621;48.690;9.466;2023-04-25T03:06:20;6.40;99.90
18974;DHT22;9621;48.690;9.466;2023-04-25T03:08:47;6.30;99.90
18974;DHT22;9621;48.690;9.466;2023-04-25T03:11:14;6.30;99.90
18974;DHT22;9621;48.690;9.466;2023-04-25T03:13:41;6.20;99.90
18974;DHT22;9621;48.690;9.466;2023-04-25T03:16:07;6.20;99.90
18974;DHT22;9621;48.690;9.466;2023-04-25T03:18:34;6.20;99.90
18974;DHT22;9621;48.690;9.466;2023-04-25T03:21:01;6.10;99.90
18974;DHT22;9621;48.690;9.466;2023-04-25T03:23:30;6.00;99.90
18974;DHT22;9621;48.690;9.466;2023-04-25T03:25:56;6.00;99.90
18974;DHT22;9621;48.690;9.466;2023-04-25T03:28:23;6.10;99.90
18974;DHT22;9621;48.690;9.466;2023-04-25T03:30:50;6.00;99.90
18974;DHT22;9621;48.690;9.466;2023-04-25T03:33:18;6.00;99.90
18974;DHT22;9621;48.690;9.466;2023-04-25T03:35:45;6.00;99.90
18974;DHT22;9621;48.690;9.466;2023-04-25T03:38:12;5.90;99.90
18974;DHT22;9621;48.690;9.466;2023-04-25T03:40:40;5.90;99.90
18974;DHT22;9621;48.690;9.466;2023-04-25T03:43:07;5.90;99.90
18974;DHT22;9621;48.690;9.466;2023-04-25T03:45:34;5.80;99.90
18974;DHT22;9621;48.690;9.466;2023-04-25T03:48:01;5.80;99.90
18974;DHT22;9621;48.690;9.466;2023-04-25T03:50:27;5.80;99.90
18974;DHT22;9621;48.690;9.466;2023-04-25T03:52:55;5.70;99.90
18974;DHT22;9621;48.690;9.466;2023-04-25T03:55:22;5.70;99.90
18974;DHT22;9621;48.690;9.466;2023-04-25T03:57:50;5.70;99.90
18974;DHT22;9621;48.690;9.466;2023-04-25T04:00:17;6.30;99.90
18974;DHT22;9621;48.690;9.466;2023-04-25T04:02:43;5.70;99.90
18974;DHT22;9621;48.690;9.466;2023-04-25T04:05:11;5.70;99.90
18974;DHT22;9621;48.690;9.466;2023-04-25T04:07:38;5.70;99.90
18974;DHT22;9621;48.690;9.466;2023-04-25T04:10:08;5.60;99.90
18974;DHT22;9621;48.690;9.466;2023-04-25T04:12:35;5.50;99.90
18974;DHT22;9621;48.690;9.466;2023-04-25T04:15:04;5.50;99.90
18974;DHT22;9621;48.690;9.466;2023-04-25T04:17:32;5.40;99.90
18974;DHT22;9621;48.690;9.466;2023-04-25T04:19:59;5.30;99.90
18974;DHT22;9621;48.690;9.466;2023-04-25T04:22:26;5.20;99.90
18974;DHT22;9621;48.690;9.466;2023-04-25T04:24:53;5.20;99.90
18974;DHT22;9621;48.690;9.466;2023-04-25T04:27:22;5.20;99.90
18974;DHT22;9621;48.690;9.466;2023-04-25T04:29:49;5.20;99.90
18974;DHT22;9621;48.690;9.466;2023-04-25T04:32:19;5.20;99.90
18974;DHT22;9621;48.690;9.466;2023-04-25T04:34:46;5.20;99.90
18974;DHT22;9621;48.690;9.466;2023-04-25T04:37:14;5.20;99.90
18974;DHT22;9621;48.690;9.466;2023-04-25T04:39:41;5.20;99.90
18974;DHT22;9621;48.690;9.466;2023-04-25T04:42:08;5.30;99.90
18974;DHT22;9621;48.690;9.466;2023-04-25T04:44:37;5.40;99.90
18974;DHT22;9621;48.690;9.466;2023-04-25T04:47:05;5.50;99.90
18974;DHT22;9621;48.690;9.466;2023-04-25T04:49:33;5.60;99.90
18974;DHT22;9621;48.690;9.466;2023-04-25T04:52:00;5.60;99.90
18974;DHT22;9621;48.690;9.466;2023-04-25T04:54:27;5.70;99.90
18974;DHT22;9621;48.690;9.466;2023-04-25T04:56:54;5.80;99.90
18974;DHT22;9621;48.690;9.466;2023-04-25T04:59:21;5.80;99.90
18974;DHT22;9621;48.690;9.466;2023-04-25T05:01:48;5.90;99.90
18974;DHT22;9621;48.690;9.466;2023-04-25T05:04:15;6.00;99.90
18974;DHT22;9621;48.690;9.466;2023-04-25T05:06:43;6.10;99.90
18974;DHT22;9621;48.690;9.466;2023-04-25T05:09:10;6.10;99.90
18974;DHT22;9621;48.690;9.466;2023-04-25T05:11:37;6.20;99.90
18974;DHT22;9621;48.690;9.466;2023-04-25T05:14:04;6.30;99.90
18974;DHT22;9621;48.690;9.466;2023-04-25T05:16:31;6.30;99.90
18974;DHT22;9621;48.690;9.466;2023-04-25T05:18:58;6.40;99.90
18974;DHT22;9621;48.690;9.466;2023-04-25T05:21:25;6.40;99.90
18974;DHT22;9621;48.690;9.466;2023-04-25T05:23:54;6.50;99.90
18974;DHT22;9621;48.690;9.466;2023-04-25T05:26:23;6.50;99.90
18974;DHT22;9621;48.690;9.466;2023-04-25T05:28:50;6.60;99.90
18974;DHT22;9621;48.690;9.466;2023-04-25T05:31:17;6.70;99.90
18974;DHT22;9621;48.690;9.466;2023-04-25T05:33:44;6.80;99.90
18974;DHT22;9621;48.690;9.466;2023-04-25T05:36:11;6.90;99.90
18974;DHT22;9621;48.690;9.466;2023-04-25T05:38:38;6.90;99.90
18974;DHT22;9621;48.690;9.466;2023-04-25T05:41:06;7.00;99.90
18974;DHT22;9621;48.690;9.466;2023-04-25T05:43:33;7.00;99.90
18974;DHT22;9621;48.690;9.466;2023-04-25T05:46:00;7.00;99.90
18974;DHT22;9621;48.690;9.466;2023-04-25T05:48:27;7.10;99.90
18974;DHT22;9621;48.690;9.466;2023-04-25T05:50:54;7.10;99.90
18974;DHT22;9621;48.690;9.466;2023-04-25T05:53:21;7.20;99.90
18974;DHT22;9621;48.690;9.466;2023-04-25T05:55:48;7.40;99.90
18974;DHT22;9621;48.690;9.466;2023-04-25T05:58:17;7.30;99.90
18974;DHT22;9621;48.690;9.466;2023-04-25T06:00:43;7.50;99.90
18974;DHT22;9621;48.690;9.466;2023-04-25T06:03:11;7.60;99.90
18974;DHT22;9621;48.690;9.466;2023-04-25T06:05:40;7.70;99.90
18974;DHT22;9621;48.690;9.466;2023-04-25T06:08:07;7.90;99.90
18974;DHT22;9621;48.690;9.466;2023-04-25T06:10:34;8.10;99.90
18974;DHT22;9621;48.690;9.466;2023-04-25T06:13:02;8.30;99.90
18974;DHT22;9621;48.690;9.466;2023-04-25T06:15:30;8.40;99.90
18974;DHT22;9621;48.690;9.466;2023-04-25T06:17:58;8.60;99.90
18974;DHT22;9621;48.690;9.466;2023-04-25T06:20:25;8.70;99.90
18974;DHT22;9621;48.690;9.466;2023-04-25T06:22:52;8.80;99.90
18974;DHT22;9621;48.690;9.466;2023-04-25T06:25:18;8.90;99.90
18974;DHT22;9621;48.690;9.466;2023-04-25T06:27:45;9.00;99.90
18974;DHT22;9621;48.690;9.466;2023-04-25T06:30:12;9.10;99.90
18974;DHT22;9621;48.690;9.466;2023-04-25T06:32:41;9.20;99.90
18974;DHT22;9621;48.690;9.466;2023-04-25T06:35:08;9.20;99.90
18974;DHT22;9621;48.690;9.466;2023-04-25T06:37:35;9.20;99.90
18974;DHT22;9621;48.690;9.466;2023-04-25T06:40:04;9.50;99.90
18974;DHT22;9621;48.690;9.466;2023-04-25T06:42:32;9.50;99.90
18974;DHT22;9621;48.690;9.466;2023-04-25T06:44:59;9.90;99.90
18974;DHT22;9621;48.690;9.466;2023-04-25T06:47:25;10.30;99.90
18974;DHT22;9621;48.690;9.466;2023-04-25T06:49:54;10.70;99.90
18974;DHT22;9621;48.690;9.466;2023-04-25T06:52:21;11.00;99.90
18974;DHT22;9621;48.690;9.466;2023-04-25T06:54:48;11.10;99.90
18974;DHT22;9621;48.690;9.466;2023-04-25T06:57:15;11.20;99.90
18974;DHT22;9621;48.690;9.466;2023-04-25T06:59:42;11.20;99.90
18974;DHT22;9621;48.690;9.466;2023-04-25T07:02:09;11.20;99.90
18974;DHT22;9621;48.690;9.466;2023-04-25T07:04:36;11.10;99.90
18974;DHT22;9621;48.690;9.466;2023-04-25T07:07:04;11.00;99.90
18974;DHT22;9621;48.690;9.466;2023-04-25T07:09:31;11.00;99.90
18974;DHT22;9621;48.690;9.466;2023-04-25T07:11:59;11.00;99.90
18974;DHT22;9621;48.690;9.466;2023-04-25T07:14:27;10.90;99.90
18974;DHT22;9621;48.690;9.466;2023-04-25T07:16:53;10.80;99.90
18974;DHT22;9621;48.690;9.466;2023-04-25T07:19:21;10.70;99.90
18974;DHT22;9621;48.690;9.466;2023-04-25T07:21:49;10.50;99.90
18974;DHT22;9621;48.690;9.466;2023-04-25T07:24:18;10.40;99.90
18974;DHT22;9621;48.690;9.466;2023-04-25T07:26:45;10.30;99.90
18974;DHT22;9621;48.690;9.466;2023-04-25T07:29:12;10.20;99.90
18974;DHT22;9621;48.690;9.466;2023-04-25T07:31:39;10.10;99.90
18974;DHT22;9621;48.690;9.466;2023-04-25T07:34:06;10.00;99.90
18974;DHT22;9621;48.690;9.466;2023-04-25T07:36:33;9.90;99.90
18974;DHT22;9621;48.690;9.466;2023-04-25T07:39:00;9.80;99.90
18974;DHT22;9621;48.690;9.466;2023-04-25T07:41:28;9.70;99.90
18974;DHT22;9621;48.690;9.466;2023-04-25T07:43:55;9.70;99.90
18974;DHT22;9621;48.690;9.466;2023-04-25T07:46:22;9.60;99.90
18974;DHT22;9621;48.690;9.466;2023-04-25T07:48:49;9.60;99.90
18974;DHT22;9621;48.690;9.466;2023-04-25T07:51:16;9.50;99.90
18974;DHT22;9621;48.690;9.466;2023-04-25T07:53:45;9.50;99.90
18974;DHT22;9621;48.690;9.466;2023-04-25T07:56:12;9.40;99.90
18974;DHT22;9621;48.690;9.466;2023-04-25T07:58:40;9.40;99.90
18974;DHT22;9621;48.690;9.466;2023-04-25T08:01:07;9.30;99.90
18974;DHT22;9621;48.690;9.466;2023-04-25T08:03:34;9.30;99.90
18974;DHT22;9621;48.690;9.466;2023-04-25T08:06:01;9.20;99.90
18974;DHT22;9621;48.690;9.466;2023-04-25T08:08:28;9.20;99.90
18974;DHT22;9621;48.690;9.466;2023-04-25T08:10:55;9.10;99.90
18974;DHT22;9621;48.690;9.466;2023-04-25T08:13:22;9.00;99.90
18974;DHT22;9621;48.690;9.466;2023-04-25T08:15:50;9.00;99.90
18974;DHT22;9621;48.690;9.466;2023-04-25T08:18:17;8.90;99.90
18974;DHT22;9621;48.690;9.466;2023-04-25T08:20:44;8.80;99.90
18974;DHT22;9621;48.690;9.466;2023-04-25T08:23:12;8.70;99.90
18974;DHT22;9621;48.690;9.466;2023-04-25T08:25:39;8.70;99.90
18974;DHT22;9621;48.690;9.466;2023-04-25T08:28:06;8.60;99.90
18974;DHT22;9621;48.690;9.466;2023-04-25T08:30:33;8.50;99.90
18974;DHT22;9621;48.690;9.466;2023-04-25T08:33:02;8.40;99.90
18974;DHT22;9621;48.690;9.466;2023-04-25T08:35:29;8.40;99.90
18974;DHT22;9621;48.690;9.466;2023-04-25T08:37:56;8.40;99.90
18974;DHT22;9621;48.690;9.466;2023-04-25T08:40:23;8.30;99.90
18974;DHT22;9621;48.690;9.466;2023-04-25T08:42:56;8.20;99.90
18974;DHT22;9621;48.690;9.466;2023-04-25T08:45:24;8.10;99.90
18974;DHT22;9621;48.690;9.466;2023-04-25T08:47:52;8.10;99.90
18974;DHT22;9621;48.690;9.466;2023-04-25T08:50:22;8.00;99.90
18974;DHT22;9621;48.690;9.466;2023-04-25T08:52:53;7.90;99.90
18974;DHT22;9621;48.690;9.466;2023-04-25T08:55:21;7.90;99.90
18974;DHT22;9621;48.690;9.466;2023-04-25T08:57:49;7.90;99.90
18974;DHT22;9621;48.690;9.466;2023-04-25T09:00:18;7.90;99.90
18974;DHT22;9621;48.690;9.466;2023-04-25T09:02:46;7.90;99.90
18974;DHT22;9621;48.690;9.466;2023-04-25T09:05:14;7.80;99.90
18974;DHT22;9621;48.690;9.466;2023-04-25T09:07:42;7.80;99.90
18974;DHT22;9621;48.690;9.466;2023-04-25T09:10:09;7.80;99.90
18974;DHT22;9621;48.690;9.466;2023-04-25T09:12:36;7.70;99.90
18974;DHT22;9621;48.690;9.466;2023-04-25T09:15:06;7.70;99.90
18974;DHT22;9621;48.690;9.466;2023-04-25T09:17:33;7.60;99.90
18974;DHT22;9621;48.690;9.466;2023-04-25T09:20:07;7.60;99.90
18974;DHT22;9621;48.690;9.466;2023-04-25T09:22:35;7.50;99.90
18974;DHT22;9621;48.690;9.466;2023-04-25T09:25:10;7.40;99.90
18974;DHT22;9621;48.690;9.466;2023-04-25T09:27:49;7.30;99.90
18974;DHT22;9621;48.690;9.466;2023-04-25T09:30:16;7.30;99.90
18974;DHT22;9621;48.690;9.466;2023-04-25T09:32:44;7.30;99.90
18974;DHT22;9621;48.690;9.466;2023-04-25T09:35:11;7.20;99.90
18974;DHT22;9621;48.690;9.466;2023-04-25T09:37:50;7.20;99.90
18974;DHT22;9621;48.690;9.466;2023-04-25T09:40:19;7.20;99.90
18974;DHT22;9621;48.690;9.466;2023-04-25T09:42:46;7.20;99.90
18974;DHT22;9621;48.690;9.466;2023-04-25T09:45:13;7.20;99.90
18974;DHT22;9621;48.690;9.466;2023-04-25T09:47:40;7.30;99.90
18974;DHT22;9621;48.690;9.466;2023-04-25T09:50:14;7.20;99.90
18974;DHT22;9621;48.690;9.466;2023-04-25T09:52:42;7.20;99.90
18974;DHT22;9621;48.690;9.466;2023-04-25T09:55:08;7.10;99.90
18974;DHT22;9621;48.690;9.466;2023-04-25T09:57:37;7.20;99.90
18974;DHT22;9621;48.690;9.466;2023-04-25T10:00:08;7.10;99.90
18974;DHT22;9621;48.690;9.466;2023-04-25T10:02:38;7.00;99.90
18974;DHT22;9621;48.690;9.466;2023-04-25T10:05:09;7.00;99.90
18974;DHT22;9621;48.690;9.466;2023-04-25T10:07:37;7.10;99.90
18974;DHT22;9621;48.690;9.466;2023-04-25T10:10:05;7.10;99.90
18974;DHT22;9621;48.690;9.466;2023-04-25T10:12:33;7.00;99.90
18974;DHT22;9621;48.690;9.466;2023-04-25T10:15:03;7.00;99.90
18974;DHT22;9621;48.690;9.466;2023-04-25T10:17:31;6.90;99.90
18974;DHT22;9621;48.690;9.466;2023-04-25T10:20:01;6.80;99.90
18974;DHT22;9621;48.690;9.466;2023-04-25T10:22:31;6.80;99.90
18974;DHT22;9621;48.690;9.466;2023-04-25T10:24:59;6.70;99.90
18974;DHT22;9621;48.690;9.466;2023-04-25T10:27:29;6.70;99.90
18974;DHT22;9621;48.690;9.466;2023-04-25T10:30:05;6.70;99.90
18974;DHT22;9621;48.690;9.466;2023-04-25T10:32:36;6.70;99.90
18974;DHT22;9621;48.690;9.466;2023-04-25T10:35:13;6.70;99.90
18974;DHT22;9621;48.690;9.466;2023-04-25T10:37:59;6.60;99.90
18974;DHT22;9621;48.690;9.466;2023-04-25T10:40:26;6.60;99.90
18974;DHT22;9621;48.690;9.466;2023-04-25T10:42:54;6.60;99.90
18974;DHT22;9621;48.690;9.466;2023-04-25T10:45:22;6.60;99.90
18974;DHT22;9621;48.690;9.466;2023-04-25T10:47:49;6.60;99.90
18974;DHT22;9621;48.690;9.466;2023-04-25T10:50:16;6.60;99.90
18974;DHT22;9621;48.690;9.466;2023-04-25T10:52:44;6.60;99.90
18974;DHT22;9621;48.690;9.466;2023-04-25T10:55:11;6.60;99.90
18974;DHT22;9621;48.690;9.466;2023-04-25T10:57:40;6.50;99.90
18974;DHT22;9621;48.690;9.466;2023-04-25T11:00:12;6.50;99.90
18974;DHT22;9621;48.690;9.466;2023-04-25T11:02:44;6.50;99.90
18974;DHT22;9621;48.690;9.466;2023-04-25T11:05:19;6.40;99.90
18974;DHT22;9621;48.690;9.466;2023-04-25T11:07:50;6.40;99.90
18974;DHT22;9621;48.690;9.466;2023-04-25T11:10:18;6.40;99.90
18974;DHT22;9621;48.690;9.466;2023-04-25T11:12:46;6.40;99.90
18974;DHT22;9621;48.690;9.466;2023-04-25T11:15:13;6.40;99.90
18974;DHT22;9621;48.690;9.466;2023-04-25T11:17:40;6.40;99.90
18974;DHT22;9621;48.690;9.466;2023-04-25T11:20:10;6.40;99.90
18974;DHT22;9621;48.690;9.466;2023-04-25T11:22:39;6.40;99.90
18974;DHT22;9621;48.690;9.466;2023-04-25T11:25:08;6.40;99.90
18974;DHT22;9621;48.690;9.466;2023-04-25T11:27:38;6.30;99.90
18974;DHT22;9621;48.690;9.466;2023-04-25T11:30:14;6.30;99.90
18974;DHT22;9621;48.690;9.466;2023-04-25T11:32:42;6.20;99.90
18974;DHT22;9621;48.690;9.466;2023-04-25T11:35:10;6.20;99.90
18974;DHT22;9621;48.690;9.466;2023-04-25T11:37:39;6.20;99.90
18974;DHT22;9621;48.690;9.466;2023-04-25T11:40:07;6.20;99.90
18974;DHT22;9621;48.690;9.466;2023-04-25T11:42:36;6.20;99.90
18974;DHT22;9621;48.690;9.466;2023-04-25T11:45:05;6.10;99.90
18974;DHT22;9621;48.690;9.466;2023-04-25T11:47:33;6.10;99.90
18974;DHT22;9621;48.690;9.466;2023-04-25T11:50:01;6.10;99.90
18974;DHT22;9621;48.690;9.466;2023-04-25T11:52:38;6.00;99.90
18974;DHT22;9621;48.690;9.466;2023-04-25T11:55:07;6.00;99.90
18974;DHT22;9621;48.690;9.466;2023-04-25T11:57:34;6.00;99.90
18974;DHT22;9621;48.690;9.466;2023-04-25T12:00:10;6.00;99.90
18974;DHT22;9621;48.690;9.466;2023-04-25T12:02:41;6.00;99.90
18974;DHT22;9621;48.690;9.466;2023-04-25T12:05:08;6.20;99.90
18974;DHT22;9621;48.690;9.466;2023-04-25T12:07:37;6.10;99.90
18974;DHT22;9621;48.690;9.466;2023-04-25T12:10:05;6.10;99.90
18974;DHT22;9621;48.690;9.466;2023-04-25T12:12:33;6.30;99.90
18974;DHT22;9621;48.690;9.466;2023-04-25T12:15:09;6.40;99.90
18974;DHT22;9621;48.690;9.466;2023-04-25T12:17:36;6.40;99.90
18974;DHT22;9621;48.690;9.466;2023-04-25T12:20:07;6.60;99.90
18974;DHT22;9621;48.690;9.466;2023-04-25T12:22:34;6.70;99.90
18974;DHT22;9621;48.690;9.466;2023-04-25T12:25:04;6.90;99.90
18974;DHT22;9621;48.690;9.466;2023-04-25T12:27:31;7.00;99.90
18974;DHT22;9621;48.690;9.466;2023-04-25T12:29:59;7.20;99.90
18974;DHT22;9621;48.690;9.466;2023-04-25T12:32:27;7.40;99.90
18974;DHT22;9621;48.690;9.466;2023-04-25T12:34:54;7.70;99.90
18974;DHT22;9621;48.690;9.466;2023-04-25T12:37:21;7.80;99.90
18974;DHT22;9621;48.690;9.466;2023-04-25T12:39:48;8.10;99.90
18974;DHT22;9621;48.690;9.466;2023-04-25T12:42:16;8.20;99.90
18974;DHT22;9621;48.690;9.466;2023-04-25T12:44:43;8.30;99.90
18974;DHT22;9621;48.690;9.466;2023-04-25T12:47:10;8.50;99.90
18974;DHT22;9621;48.690;9.466;2023-04-25T12:49:37;8.70;99.90
18974;DHT22;9621;48.690;9.466;2023-04-25T12:52:04;8.70;99.90
18974;DHT22;9621;48.690;9.466;2023-04-25T12:54:30;8.80;99.90
18974;DHT22;9621;48.690;9.466;2023-04-25T12:56:57;8.90;99.90
18974;DHT22;9621;48.690;9.466;2023-04-25T12:59:26;9.00;99.90
18974;DHT22;9621;48.690;9.466;2023-04-25T13:01:53;9.00;99.90
18974;DHT22;9621;48.690;9.466;2023-04-25T13:04:20;9.10;99.90
18974;DHT22;9621;48.690;9.466;2023-04-25T13:06:47;9.10;99.90
18974;DHT22;9621;48.690;9.466;2023-04-25T13:09:14;9.20;99.90
18974;DHT22;9621;48.690;9.466;2023-04-25T13:11:42;9.30;99.90
18974;DHT22;9621;48.690;9.466;2023-04-25T13:14:09;9.40;99.90
18974;DHT22;9621;48.690;9.466;2023-04-25T13:16:37;9.40;99.90
18974;DHT22;9621;48.690;9.466;2023-04-25T13:19:04;9.50;99.90
18974;DHT22;9621;48.690;9.466;2023-04-25T13:21:33;9.50;99.90
18974;DHT22;9621;48.690;9.466;2023-04-25T13:24:00;9.50;99.90
18974;DHT22;9621;48.690;9.466;2023-04-25T13:26:26;9.50;99.90
18974;DHT22;9621;48.690;9.466;2023-04-25T13:28:53;9.50;99.90
18974;DHT22;9621;48.690;9.466;2023-04-25T13:31:20;9.50;99.90
18974;DHT22;9621;48.690;9.466;2023-04-25T13:33:48;9.70;99.90
18974;DHT22;9621;48.690;9.466;2023-04-25T13:36:15;9.90;99.90
18974;DHT22;9621;48.690;9.466;2023-04-25T13:38:42;10.00;99.90
18974;DHT22;9621;48.690;9.466;2023-04-25T13:41:12;10.10;99.90
18974;DHT22;9621;48.690;9.466;2023-04-25T13:43:44;10.30;99.90
18974;DHT22;9621;48.690;9.466;2023-04-25T13:46:12;10.50;99.90
18974;DHT22;9621;48.690;9.466;2023-04-25T13:48:40;10.70;99.90
18974;DHT22;9621;48.690;9.466;2023-04-25T13:51:13;11.00;99.90
18974;DHT22;9621;48.690;9.466;2023-04-25T13:53:41;11.10;99.90
18974;DHT22;9621;48.690;9.466;2023-04-25T13:56:08;11.40;99.90
18974;DHT22;9621;48.690;9.466;2023-04-25T13:58:35;11.70;99.90
18974;DHT22;9621;48.690;9.466;2023-04-25T14:01:02;12.00;99.90
18974;DHT22;9621;48.690;9.466;2023-04-25T14:03:29;12.20;99.90
18974;DHT22;9621;48.690;9.466;2023-04-25T14:05:56;12.20;99.90
18974;DHT22;9621;48.690;9.466;2023-04-25T14:08:25;12.20;99.90
18974;DHT22;9621;48.690;9.466;2023-04-25T14:10:52;12.20;99.90
18974;DHT22;9621;48.690;9.466;2023-04-25T14:13:18;12.10;99.90
18974;DHT22;9621;48.690;9.466;2023-04-25T14:15:46;12.00;99.90
18974;DHT22;9621;48.690;9.466;2023-04-25T14:18:12;12.00;99.90
18974;DHT22;9621;48.690;9.466;2023-04-25T14:20:39;12.00;99.90
18974;DHT22;9621;48.690;9.466;2023-04-25T14:23:06;12.00;99.90
18974;DHT22;9621;48.690;9.466;2023-04-25T14:25:35;12.10;99.90
18974;DHT22;9621;48.690;9.466;2023-04-25T14:28:03;12.10;99.90
18974;DHT22;9621;48.690;9.466;2023-04-25T14:30:30;12.10;99.90
18974;DHT22;9621;48.690;9.466;2023-04-25T14:32:57;12.00;99.90
18974;DHT22;9621;48.690;9.466;2023-04-25T14:35:24;12.10;99.90
18974;DHT22;9621;48.690;9.466;2023-04-25T14:37:51;12.00;99.90
18974;DHT22;9621;48.690;9.466;2023-04-25T14:40:19;12.00;99.90
18974;DHT22;9621;48.690;9.466;2023-04-25T14:42:50;12.10;99.90
18974;DHT22;9621;48.690;9.466;2023-04-25T14:45:17;11.90;99.90
18974;DHT22;9621;48.690;9.466;2023-04-25T14:47:44;11.90;99.90
18974;DHT22;9621;48.690;9.466;2023-04-25T14:50:11;11.90;99.90
18974;DHT22;9621;48.690;9.466;2023-04-25T14:52:38;11.80;99.90
18974;DHT22;9621;48.690;9.466;2023-04-25T14:55:05;11.70;99.90
18974;DHT22;9621;48.690;9.466;2023-04-25T14:57:33;11.60;99.90
18974;DHT22;9621;48.690;9.466;2023-04-25T15:00:01;11.50;99.90
18974;DHT22;9621;48.690;9.466;2023-04-25T15:02:33;11.30;99.90
18974;DHT22;9621;48.690;9.466;2023-04-25T15:05:01;11.30;99.90
18974;DHT22;9621;48.690;9.466;2023-04-25T15:07:28;11.00;99.90
18974;DHT22;9621;48.690;9.466;2023-04-25T15:09:56;10.80;99.90
18974;DHT22;9621;48.690;9.466;2023-04-25T15:12:23;10.70;99.90
18974;DHT22;9621;48.690;9.466;2023-04-25T15:14:51;10.50;99.90
18974;DHT22;9621;48.690;9.466;2023-04-25T15:17:20;10.30;99.90
18974;DHT22;9621;48.690;9.466;2023-04-25T15:19:46;10.20;99.90
18974;DHT22;9621;48.690;9.466;2023-04-25T15:22:13;10.10;99.90
18974;DHT22;9621;48.690;9.466;2023-04-25T15:24:40;10.10;99.90
18974;DHT22;9621;48.690;9.466;2023-04-25T15:27:07;10.00;99.90
18974;DHT22;9621;48.690;9.466;2023-04-25T15:29:34;9.90;99.90
18974;DHT22;9621;48.690;9.466;2023-04-25T15:32:01;9.90;99.90
18974;DHT22;9621;48.690;9.466;2023-04-25T15:34:29;9.80;99.90
18974;DHT22;9621;48.690;9.466;2023-04-25T15:36:56;9.80;99.90
18974;DHT22;9621;48.690;9.466;2023-04-25T15:39:23;9.80;99.90
18974;DHT22;9621;48.690;9.466;2023-04-25T15:41:50;9.90;99.90
18974;DHT22;9621;48.690;9.466;2023-04-25T15:44:17;9.90;99.90
18974;DHT22;9621;48.690;9.466;2023-04-25T15:46:44;9.90;99.90
18974;DHT22;9621;48.690;9.466;2023-04-25T15:49:11;9.80;99.90
18974;DHT22;9621;48.690;9.466;2023-04-25T15:51:40;9.90;99.90
18974;DHT22;9621;48.690;9.466;2023-04-25T15:54:07;9.80;99.90
18974;DHT22;9621;48.690;9.466;2023-04-25T15:56:35;9.80;99.90
18974;DHT22;9621;48.690;9.466;2023-04-25T15:59:02;9.80;99.90
18974;DHT22;9621;48.690;9.466;2023-04-25T16:01:29;9.70;99.90
18974;DHT22;9621;48.690;9.466;2023-04-25T16:03:56;9.80;99.90
18974;DHT22;9621;48.690;9.466;2023-04-25T16:06:24;9.80;99.90
18974;DHT22;9621;48.690;9.466;2023-04-25T16:08:53;9.80;99.90
18974;DHT22;9621;48.690;9.466;2023-04-25T16:11:20;9.80;99.90